KACK/ACK METAR and TAF weather

Enter ICAO airport designator
Station Type Date Time Source
KACK METAR 2019/07/17 12:53 UTC NOAA

KACK 171253Z 22010KT 10SM SCT008 23/21 A2999 RMK AO2 SLP156 T02280211


Station Type Date Time Source
KACK Decoded METAR 2019/07/17 12:53 UTC NOAA

NANTUCKET MEMORIAL AIRPORT, MA, United States (KACK) 41-15N 70-04W 16M
Jul 17, 2019 - 08:53 AM EDT / 2019.07.17 1253 UTC
Wind: from the SW (220 degrees) at 12 MPH (10 KT):0
Visibility: 10 mile(s):0
Sky conditions: partly cloudy
Temperature: 73.0 F (22.8 C)
Dew Point: 70.0 F (21.1 C)
Relative Humidity: 90%
Pressure (altimeter): 29.99 in. Hg (1015 hPa)
ob: KACK 171253Z 22010KT 10SM SCT008 23/21 A2999 RMK AO2 SLP156 T02280211
cycle: 13

Station Type Date Time Source
KACK TAF 2019/07/17 12:28 UTC NOAA

TAF KACK 171126Z 1712/1812 22012KT P6SM SCT250
FM171700 22012KT P6SM BKN100
FM172000 21013G20KT P6SM BKN035
FM172200 21012KT 3SM SHRA BR VCTS BKN015CB
FM180200 23009KT 2SM -SHRA BR OVC004

Example: see airport list